Buoy 62726

sailwx.info

Track history (hours):
 
Tides and Currents Weather Stations Pressure Air Temp Water Temp Dewpoint Dewpoint Depression Visibility Wind Speed Wind Dir Waves Ship Positions

Drifting buoy 62726

Last reported at 2015-Mar-02 14:00 UTC. Time now 2015-Mar-02 16:31 UTC.
Position N 37°32' W 019°30'.

Water temperature 14.7 ° C

Date/timePositionNaut miles runAvg speedWind from/ knotsBaromVisibWave heightAir tempDewpointWater temp
2015-Mar-02 14:00N 37°32' W 019°30'0 0.1 14.7
2015-Mar-02 11:00N 37°32' W 019°30'0 0.0 14.5
2015-Mar-02 09:00N 37°32' W 019°30'0 0.2 14.5
2015-Mar-02 07:00N 37°32' W 019°30'2 0.4 14.5
2015-Mar-02 03:00N 37°33' W 019°32'1 0.1 14.5
2015-Mar-01 23:00N 37°33' W 019°32'0 0.0 14.5
2015-Mar-01 22:00N 37°33' W 019°32'2 0.3 14.5
2015-Mar-01 17:00N 37°34' W 019°34'0 0.0 14.6
2015-Mar-01 16:00N 37°34' W 019°34'1 0.7 14.5
2015-Mar-01 14:00N 37°35' W 019°34'0 0.0 14.5
2015-Mar-01 13:00N 37°35' W 019°34'0 0.0 14.5
2015-Mar-01 08:00N 37°35' W 019°34'0 0.2 14.4
2015-Mar-01 07:00N 37°35' W 019°34'1 0.3 14.4
2015-Mar-01 05:00N 37°36' W 019°34'1 0.9 14.4
2015-Mar-01 04:00N 37°36' W 019°36'0 0.0 14.4
2015-Mar-01 02:00N 37°36' W 019°36'0 0.0 14.4
2015-Feb-28 22:00N 37°36' W 019°36'1 0.4 14.5
2015-Feb-28 19:00N 37°37' W 019°35'0 0.0 14.5
2015-Feb-28 17:00N 37°37' W 019°35'1 1.3 14.5
2015-Feb-28 16:00N 37°38' W 019°37'0 0.2 14.5
2015-Feb-28 14:00N 37°38' W 019°37'0 0.0 14.5
2015-Feb-28 12:00N 37°38' W 019°37'0 0.3 14.5
2015-Feb-28 11:00N 37°38' W 019°37'0 0.5 14.5
2015-Feb-28 10:00N 37°38' W 019°38'1 0.2 14.4
2015-Feb-28 06:00N 37°39' W 019°38'0 0.0 14.4
2015-Feb-28 05:00N 37°39' W 019°38'0 0.0 14.5
2015-Feb-28 04:00N 37°39' W 019°38'1 0.2 14.5
2015-Feb-27 23:00N 37°40' W 019°38'1 0.2 14.5
2015-Feb-27 20:00N 37°41' W 019°39'0 0.0 14.6
2015-Feb-27 18:00N 37°41' W 019°39'1 1.4 14.7
2015-Feb-27 17:00N 37°42' W 019°40'0 0.0 14.7
2015-Feb-27 16:00N 37°42' W 019°40'1 0.6 14.7
2015-Feb-27 14:00N 37°42' W 019°41'1 0.1 14.9
2015-Feb-27 08:00N 37°43' W 019°40'0 0.2 14.3
2015-Feb-27 06:00N 37°43' W 019°41'1 0.6 14.4
2015-Feb-27 05:00N 37°44' W 019°41'1 1.0 14.4
2015-Feb-27 04:00N 37°45' W 019°42'0 0.0 14.4
2015-Feb-27 03:00N 37°45' W 019°42'1 0.2 14.4
2015-Feb-26 19:00N 37°46' W 019°42'0 0.2 14.5
2015-Feb-26 18:00N 37°46' W 019°42'1 0.4 14.5
2015-Feb-26 16:00N 37°47' W 019°42'0 0.4 14.6
2015-Feb-26 15:00N 37°47' W 019°42'1 1.1 14.5
2015-Feb-26 14:00N 37°47' W 019°43'0 0.1 14.5
2015-Feb-26 12:00N 37°47' W 019°43'0 0.1 14.4
2015-Feb-26 11:00N 37°47' W 019°43'1 0.2 14.4
2015-Feb-26 08:00N 37°47' W 019°44'0 0.4 14.4
2015-Feb-26 07:00N 37°47' W 019°44'2 2.2 14.4
2015-Feb-26 06:00N 37°49' W 019°46'0 0.0 14.5
2015-Feb-26 05:00N 37°49' W 019°46'0 0.0 14.5
2015-Feb-26 02:00N 37°49' W 019°46'0 0.1 14.6
2015-Feb-25 21:00N 37°49' W 019°46'2 0.7 14.8
2015-Feb-25 18:00N 37°51' W 019°46'0 0.0 15.0
2015-Feb-25 17:00N 37°51' W 019°46'0 0.0 15.1
2015-Feb-25 16:00N 37°51' W 019°46'0 0.0 15.1
2015-Feb-25 15:00N 37°51' W 019°46'0 0.0 15.0
2015-Feb-25 12:00N 37°51' W 019°46'0 0.0 14.5
2015-Feb-25 11:00N 37°51' W 019°46'0 0.0 14.4
2015-Feb-25 10:00N 37°51' W 019°46'0 0.1 14.4
2015-Feb-25 09:00N 37°51' W 019°46'1 0.5 14.4
2015-Feb-25 07:00N 37°52' W 019°46'0 0.2 14.4
2015-Feb-25 06:00N 37°52' W 019°46'1 1.0 14.4
2015-Feb-25 05:00N 37°53' W 019°45'0 0.1 14.4
2015-Feb-25 03:00N 37°53' W 019°45'1 0.4 14.4
2015-Feb-24 23:00N 37°55' W 019°46'0 0.0 14.4
2015-Feb-24 22:00N 37°55' W 019°46'3 2.7 14.4
2015-Feb-24 21:00N 37°57' W 019°44'0 0.0 14.5
2015-Feb-24 20:00N 37°57' W 019°44'0 0.0 14.5
2015-Feb-24 19:00N 37°57' W 019°44'0 0.0 14.6
2015-Feb-24 17:00N 37°57' W 019°44'0 0.0 14.8
2015-Feb-24 16:00N 37°57' W 019°44'0 0.0 14.8
2015-Feb-24 15:00N 37°57' W 019°44'1 0.5 14.8
2015-Feb-24 13:00N 37°58' W 019°44'1 0.6 14.5
2015-Feb-24 12:00N 37°58' W 019°45'2 0.8 14.4
2015-Feb-24 10:00N 38°00' W 019°44'0 0.0 14.3
2015-Feb-24 08:00N 38°00' W 019°44'1 0.7 14.3
2015-Feb-24 07:00N 38°01' W 019°44'0 0.4 14.2
2015-Feb-24 06:00N 38°01' W 019°44'2 2.1 14.2
2015-Feb-24 05:00N 38°03' W 019°43'0 0.0 14.3
2015-Feb-24 03:00N 38°03' W 019°43'1 0.3 14.3
2015-Feb-23 23:00N 38°04' W 019°43'1 0.3 14.3
2015-Feb-23 19:00N 38°05' W 019°42'2 0.7 14.3
2015-Feb-23 16:00N 38°07' W 019°41'0 0.0 14.3
2015-Feb-23 15:00N 38°07' W 019°41'2 1.0 14.4
2015-Feb-23 13:00N 38°09' W 019°42'2 2.4 14.3
2015-Feb-23 12:00N 38°12' W 019°41'0 0.0 14.3
2015-Feb-23 10:00N 38°12' W 019°41'1 0.3 14.3
2015-Feb-23 07:00N 38°12' W 019°40'0 0.0 14.3
2015-Feb-23 06:00N 38°12' W 019°40'0 0.1 14.3
2015-Feb-23 05:00N 38°13' W 019°40'6 0.9 14.3
2015-Feb-22 22:00N 38°19' W 019°39'0 0.0 14.3
2015-Feb-22 21:00N 38°19' W 019°39'0 0.0 14.4
2015-Feb-22 19:00N 38°19' W 019°39'1 0.9 14.4
2015-Feb-22 18:00N 38°19' W 019°38'2 1.8 14.4
2015-Feb-22 17:00N 38°21' W 019°37'0 0.0 14.4
2015-Feb-22 16:00N 38°21' W 019°37'0 0.0 14.4
2015-Feb-22 14:00N 38°21' W 019°37'4 2.1 14.4
2015-Feb-22 12:00N 38°25' W 019°35'0 0.0 14.3
2015-Feb-22 11:00N 38°25' W 019°35'0 0.0 14.3
2015-Feb-22 08:00N 38°25' W 019°35'1 1.2 14.5
2015-Feb-22 07:00N 38°25' W 019°33'2 0.5 14.4
2015-Feb-22 03:00N 38°27' W 019°32'3 1.2 14.4
2015-Feb-22 00:00N 38°30' W 019°31'0 0.0 14.3
2015-Feb-21 23:00N 38°30' W 019°31'2 0.3 14.3
2015-Feb-21 16:00N 38°32' W 019°28'3 0.8 14.5
2015-Feb-21 12:00N 38°34' W 019°25'0 0.0 14.6
2015-Feb-21 11:00N 38°34' W 019°25'7 0.4 14.6
2015-Feb-20 19:00N 38°39' W 019°19'0 0.0 14.5
2015-Feb-20 17:00N 38°39' W 019°19'0 0.0 14.5
2015-Feb-20 16:00N 38°39' W 019°19'   14.5
Track history (hours):
 
Tides and Currents Weather Stations Pressure Air Temp Water Temp Dewpoint Dewpoint Depression Visibility Wind Speed Wind Dir Waves Ship Positions

Drifting buoy 62726

Last reported at 2015-Mar-02 14:00 UTC. Time now 2015-Mar-02 16:31 UTC.
Position N 37°32' W 019°30'.

Water temperature 14.7 ° C

Date/timePositionNaut miles runAvg speedWind from/ knotsBaromVisibWave heightAir tempDewpointWater temp
2015-Mar-02 14:00N 37°32' W 019°30'0 0.1 14.7
2015-Mar-02 11:00N 37°32' W 019°30'0 0.0 14.5
2015-Mar-02 09:00N 37°32' W 019°30'0 0.2 14.5
2015-Mar-02 07:00N 37°32' W 019°30'2 0.4 14.5
2015-Mar-02 03:00N 37°33' W 019°32'1 0.1 14.5
2015-Mar-01 23:00N 37°33' W 019°32'0 0.0 14.5
2015-Mar-01 22:00N 37°33' W 019°32'2 0.3 14.5
2015-Mar-01 17:00N 37°34' W 019°34'0 0.0 14.6
2015-Mar-01 16:00N 37°34' W 019°34'1 0.7 14.5
2015-Mar-01 14:00N 37°35' W 019°34'0 0.0 14.5
2015-Mar-01 13:00N 37°35' W 019°34'0 0.0 14.5
2015-Mar-01 08:00N 37°35' W 019°34'0 0.2 14.4
2015-Mar-01 07:00N 37°35' W 019°34'1 0.3 14.4
2015-Mar-01 05:00N 37°36' W 019°34'1 0.9 14.4
2015-Mar-01 04:00N 37°36' W 019°36'0 0.0 14.4
2015-Mar-01 02:00N 37°36' W 019°36'0 0.0 14.4
2015-Feb-28 22:00N 37°36' W 019°36'1 0.4 14.5
2015-Feb-28 19:00N 37°37' W 019°35'0 0.0 14.5
2015-Feb-28 17:00N 37°37' W 019°35'1 1.3 14.5
2015-Feb-28 16:00N 37°38' W 019°37'0 0.2 14.5
2015-Feb-28 14:00N 37°38' W 019°37'0 0.0 14.5
2015-Feb-28 12:00N 37°38' W 019°37'0 0.3 14.5
2015-Feb-28 11:00N 37°38' W 019°37'0 0.5 14.5
2015-Feb-28 10:00N 37°38' W 019°38'1 0.2 14.4
2015-Feb-28 06:00N 37°39' W 019°38'0 0.0 14.4
2015-Feb-28 05:00N 37°39' W 019°38'0 0.0 14.5
2015-Feb-28 04:00N 37°39' W 019°38'1 0.2 14.5
2015-Feb-27 23:00N 37°40' W 019°38'1 0.2 14.5
2015-Feb-27 20:00N 37°41' W 019°39'0 0.0 14.6
2015-Feb-27 18:00N 37°41' W 019°39'1 1.4 14.7
2015-Feb-27 17:00N 37°42' W 019°40'0 0.0 14.7
2015-Feb-27 16:00N 37°42' W 019°40'1 0.6 14.7
2015-Feb-27 14:00N 37°42' W 019°41'1 0.1 14.9
2015-Feb-27 08:00N 37°43' W 019°40'0 0.2 14.3
2015-Feb-27 06:00N 37°43' W 019°41'1 0.6 14.4
2015-Feb-27 05:00N 37°44' W 019°41'1 1.0 14.4
2015-Feb-27 04:00N 37°45' W 019°42'0 0.0 14.4
2015-Feb-27 03:00N 37°45' W 019°42'1 0.2 14.4
2015-Feb-26 19:00N 37°46' W 019°42'0 0.2 14.5
2015-Feb-26 18:00N 37°46' W 019°42'1 0.4 14.5
2015-Feb-26 16:00N 37°47' W 019°42'0 0.4 14.6
2015-Feb-26 15:00N 37°47' W 019°42'1 1.1 14.5
2015-Feb-26 14:00N 37°47' W 019°43'0 0.1 14.5
2015-Feb-26 12:00N 37°47' W 019°43'0 0.1 14.4
2015-Feb-26 11:00N 37°47' W 019°43'1 0.2 14.4
2015-Feb-26 08:00N 37°47' W 019°44'0 0.4 14.4
2015-Feb-26 07:00N 37°47' W 019°44'2 2.2 14.4
2015-Feb-26 06:00N 37°49' W 019°46'0 0.0 14.5
2015-Feb-26 05:00N 37°49' W 019°46'0 0.0 14.5
2015-Feb-26 02:00N 37°49' W 019°46'0 0.1 14.6
2015-Feb-25 21:00N 37°49' W 019°46'2 0.7 14.8
2015-Feb-25 18:00N 37°51' W 019°46'0 0.0 15.0
2015-Feb-25 17:00N 37°51' W 019°46'0 0.0 15.1
2015-Feb-25 16:00N 37°51' W 019°46'0 0.0 15.1
2015-Feb-25 15:00N 37°51' W 019°46'0 0.0 15.0
2015-Feb-25 12:00N 37°51' W 019°46'0 0.0 14.5
2015-Feb-25 11:00N 37°51' W 019°46'0 0.0 14.4
2015-Feb-25 10:00N 37°51' W 019°46'0 0.1 14.4
2015-Feb-25 09:00N 37°51' W 019°46'1 0.5 14.4
2015-Feb-25 07:00N 37°52' W 019°46'0 0.2 14.4
2015-Feb-25 06:00N 37°52' W 019°46'1 1.0 14.4
2015-Feb-25 05:00N 37°53' W 019°45'0 0.1 14.4
2015-Feb-25 03:00N 37°53' W 019°45'1 0.4 14.4
2015-Feb-24 23:00N 37°55' W 019°46'0 0.0 14.4
2015-Feb-24 22:00N 37°55' W 019°46'3 2.7 14.4
2015-Feb-24 21:00N 37°57' W 019°44'0 0.0 14.5
2015-Feb-24 20:00N 37°57' W 019°44'0 0.0 14.5
2015-Feb-24 19:00N 37°57' W 019°44'0 0.0 14.6
2015-Feb-24 17:00N 37°57' W 019°44'0 0.0 14.8
2015-Feb-24 16:00N 37°57' W 019°44'0 0.0 14.8
2015-Feb-24 15:00N 37°57' W 019°44'1 0.5 14.8
2015-Feb-24 13:00N 37°58' W 019°44'1 0.6 14.5
2015-Feb-24 12:00N 37°58' W 019°45'2 0.8 14.4
2015-Feb-24 10:00N 38°00' W 019°44'0 0.0 14.3
2015-Feb-24 08:00N 38°00' W 019°44'1 0.7 14.3
2015-Feb-24 07:00N 38°01' W 019°44'0 0.4 14.2
2015-Feb-24 06:00N 38°01' W 019°44'2 2.1 14.2
2015-Feb-24 05:00N 38°03' W 019°43'0 0.0 14.3
2015-Feb-24 03:00N 38°03' W 019°43'1 0.3 14.3
2015-Feb-23 23:00N 38°04' W 019°43'1 0.3 14.3
2015-Feb-23 19:00N 38°05' W 019°42'2 0.7 14.3
2015-Feb-23 16:00N 38°07' W 019°41'0 0.0 14.3
2015-Feb-23 15:00N 38°07' W 019°41'2 1.0 14.4
2015-Feb-23 13:00N 38°09' W 019°42'2 2.4 14.3
2015-Feb-23 12:00N 38°12' W 019°41'0 0.0 14.3
2015-Feb-23 10:00N 38°12' W 019°41'1 0.3 14.3
2015-Feb-23 07:00N 38°12' W 019°40'0 0.0 14.3
2015-Feb-23 06:00N 38°12' W 019°40'0 0.1 14.3
2015-Feb-23 05:00N 38°13' W 019°40'6 0.9 14.3
2015-Feb-22 22:00N 38°19' W 019°39'0 0.0 14.3
2015-Feb-22 21:00N 38°19' W 019°39'0 0.0 14.4
2015-Feb-22 19:00N 38°19' W 019°39'1 0.9 14.4
2015-Feb-22 18:00N 38°19' W 019°38'2 1.8 14.4
2015-Feb-22 17:00N 38°21' W 019°37'0 0.0 14.4
2015-Feb-22 16:00N 38°21' W 019°37'0 0.0 14.4
2015-Feb-22 14:00N 38°21' W 019°37'4 2.1 14.4
2015-Feb-22 12:00N 38°25' W 019°35'0 0.0 14.3
2015-Feb-22 11:00N 38°25' W 019°35'0 0.0 14.3
2015-Feb-22 08:00N 38°25' W 019°35'1 1.2 14.5
2015-Feb-22 07:00N 38°25' W 019°33'2 0.5 14.4
2015-Feb-22 03:00N 38°27' W 019°32'3 1.2 14.4
2015-Feb-22 00:00N 38°30' W 019°31'0 0.0 14.3
2015-Feb-21 23:00N 38°30' W 019°31'2 0.3 14.3
2015-Feb-21 16:00N 38°32' W 019°28'3 0.8 14.5
2015-Feb-21 12:00N 38°34' W 019°25'0 0.0 14.6
2015-Feb-21 11:00N 38°34' W 019°25'7 0.4 14.6
2015-Feb-20 19:00N 38°39' W 019°19'0 0.0 14.5
2015-Feb-20 17:00N 38°39' W 019°19'0 0.0 14.5
2015-Feb-20 16:00N 38°39' W 019°19'   14.5

Dump ship's entire track history